Time;durP1;ratioP1;P1;durP2;ratioP2;P2;SDS_P1;SDS_P2;PMS_P1;PMS_P2;Temp;Humidity;BMP_temperature;BMP_pressure;BME280_temperature;BME280_humidity;BME280_pressure;Samples;Min_cycle;Max_cycle;Signal;HPM_P1;HPM_P2
2021/01/12 00:00:54;;;;;;;26.45;17.35;;;;;;;0.56;71.66;101193.91;1754145;81;21147;-74
2021/01/12 00:03:22;;;;;;;28.77;18.10;;;;;;;0.56;71.62;101195.22;1756203;81;21627;-74
2021/01/12 00:05:50;;;;;;;27.62;18.17;;;;;;;0.55;71.63;101203.61;1762012;81;21212;-74
2021/01/12 00:08:18;;;;;;;29.60;18.05;;;;;;;0.53;71.74;101200.83;1785557;77;21170;-74
2021/01/12 00:10:48;;;;;;;27.65;17.85;;;;;;;0.57;71.86;101203.45;1746984;81;21695;-74
2021/01/12 00:13:15;;;;;;;26.77;17.50;;;;;;;0.61;71.91;101202.09;1746307;81;21148;-74
2021/01/12 00:15:43;;;;;;;26.75;17.65;;;;;;;0.66;71.93;101205.84;1765025;81;21639;-74
2021/01/12 00:18:11;;;;;;;26.30;16.52;;;;;;;0.68;71.93;101202.52;1760344;81;21234;-74
2021/01/12 00:20:40;;;;;;;26.52;17.10;;;;;;;0.72;71.91;101203.48;1748565;81;21159;-73
2021/01/12 00:23:08;;;;;;;26.50;17.02;;;;;;;0.72;71.84;101205.61;1744378;81;21248;-74
2021/01/12 00:25:40;;;;;;;25.97;16.70;;;;;;;0.68;71.75;101211.72;1746471;81;21673;-73
2021/01/12 00:28:09;;;;;;;28.12;17.65;;;;;;;0.59;71.79;101206.70;1756904;79;22253;-73
2021/01/12 00:30:37;;;;;;;30.15;18.02;;;;;;;0.52;71.87;101207.89;1744828;81;21206;-73
2021/01/12 00:33:05;;;;;;;27.75;17.30;;;;;;;0.52;71.96;101206.58;1735268;81;21187;-73
2021/01/12 00:35:32;;;;;;;28.15;18.15;;;;;;;0.52;72.04;101205.27;1724782;82;22034;-73
2021/01/12 00:38:00;;;;;;;26.27;16.95;;;;;;;0.53;72.17;101204.77;1731674;82;21599;-73
2021/01/12 00:40:29;;;;;;;26.82;18.05;;;;;;;0.52;72.22;101200.51;1741707;80;21266;-73
2021/01/12 00:42:57;;;;;;;30.02;18.70;;;;;;;0.51;72.24;101194.44;1728372;81;21183;-74
2021/01/12 00:45:24;;;;;;;26.30;15.15;;;;;;;0.50;72.30;101195.95;1709501;82;21127;-73
2021/01/12 00:47:52;;;;;;;30.02;17.62;;;;;;;0.51;72.28;101198.88;1707863;82;21631;-74
2021/01/12 00:50:21;;;;;;;29.27;18.77;;;;;;;0.43;72.23;101190.06;1721749;81;21133;-75
2021/01/12 00:52:50;;;;;;;26.97;17.57;;;;;;;0.40;72.34;101195.67;1723297;82;21388;-75
2021/01/12 00:55:18;;;;;;;30.60;19.07;;;;;;;0.41;72.43;101193.86;1708862;82;21158;-74
2021/01/12 00:57:46;;;;;;;32.13;20.20;;;;;;;0.43;72.51;101199.77;1710463;82;21203;-75
2021/01/12 01:00:15;;;;;;;28.23;18.75;;;;;;;0.48;72.62;101197.92;1722896;81;21223;-74
2021/01/12 01:02:43;;;;;;;28.80;18.20;;;;;;;0.51;72.59;101197.57;1720182;81;21492;-74
2021/01/12 01:05:12;;;;;;;29.10;18.30;;;;;;;0.52;72.62;101191.31;1707861;82;21603;-74
2021/01/12 01:07:40;;;;;;;28.83;17.95;;;;;;;0.54;72.55;101198.03;1708273;82;21120;-74
2021/01/12 01:10:09;;;;;;;31.93;20.35;;;;;;;0.54;72.58;101198.03;1719386;81;21611;-74
2021/01/12 01:12:38;;;;;;;28.85;18.65;;;;;;;0.55;72.58;101200.16;1715833;82;21143;-74
2021/01/12 01:15:07;;;;;;;32.08;20.08;;;;;;;0.55;72.56;101199.66;1718549;82;21216;-73
2021/01/12 01:17:35;;;;;;;32.15;20.20;;;;;;;0.58;72.56;101199.81;1715056;82;21427;-73
2021/01/12 01:20:06;;;;;;;31.77;19.32;;;;;;;0.57;72.45;101203.45;1718567;81;21650;-73
2021/01/12 01:22:33;;;;;;;31.65;20.12;;;;;;;0.57;72.33;101202.13;1728474;82;21088;-72
2021/01/12 01:25:01;;;;;;;32.70;20.10;;;;;;;0.51;72.23;101204.95;1727504;82;21141;-74
2021/01/12 01:27:34;;;;;;;30.68;19.57;;;;;;;0.45;72.17;101201.70;1708588;82;21191;-74
2021/01/12 01:30:04;;;;;;;29.87;18.60;;;;;;;0.42;72.19;101200.73;1720468;81;21396;-73
2021/01/12 01:32:33;;;;;;;29.05;18.62;;;;;;;0.41;72.17;101196.48;1721176;82;21139;-72
2021/01/12 01:35:01;;;;;;;28.90;18.82;;;;;;;0.38;72.03;101200.77;1709388;82;21143;-73
2021/01/12 01:37:29;;;;;;;32.08;19.55;;;;;;;0.37;72.01;101197.33;1714431;82;21155;-73
2021/01/12 01:39:56;;;;;;;28.67;18.30;;;;;;;0.40;72.01;101197.48;1719065;81;21552;-74
2021/01/12 01:42:24;;;;;;;28.77;17.62;;;;;;;0.39;71.98;101193.20;1723971;82;21297;-73
2021/01/12 01:44:52;;;;;;;26.57;17.67;;;;;;;0.41;71.93;101192.04;1725293;82;21188;-73
2021/01/12 01:47:20;;;;;;;25.27;16.85;;;;;;;0.40;71.85;101189.60;1713445;82;21632;-74
2021/01/12 01:49:48;;;;;;;21.82;14.05;;;;;;;0.41;71.79;101193.86;1709474;81;21588;-73
2021/01/12 01:52:17;;;;;;;25.40;15.95;;;;;;;0.40;71.10;101189.60;1725245;82;21104;-74
2021/01/12 01:54:44;;;;;;;24.07;15.60;;;;;;;0.39;70.85;101192.70;1728388;82;21374;-74
2021/01/12 01:57:12;;;;;;;25.52;16.82;;;;;;;0.42;70.82;101191.54;1717576;82;21163;-74
2021/01/12 01:59:41;;;;;;;23.95;16.10;;;;;;;0.45;70.79;101195.95;1689795;84;21080;-74
2021/01/12 02:02:10;;;;;;;24.25;15.40;;;;;;;0.49;70.76;101195.09;1722551;81;21171;-75
2021/01/12 02:04:39;;;;;;;22.90;15.08;;;;;;;0.52;70.64;101197.38;1720480;82;21147;-74
2021/01/12 02:07:07;;;;;;;23.52;14.45;;;;;;;0.51;70.50;101196.26;1716545;82;21218;-74
2021/01/12 02:09:53;;;;;;;22.55;14.40;;;;;;;0.49;70.25;101191.16;1725482;82;21519;-74
2021/01/12 02:12:35;;;;;;;21.97;14.10;;;;;;;0.48;70.16;101190.84;1732136;81;21076;-73
2021/01/12 02:15:03;;;;;;;21.10;13.75;;;;;;;0.50;69.99;101184.93;1722623;81;21116;-73
2021/01/12 02:17:31;;;;;;;18.25;12.13;;;;;;;0.50;69.70;101184.93;1719966;82;21175;-74
2021/01/12 02:19:59;;;;;;;20.25;13.05;;;;;;;0.49;69.30;101182.46;1708091;82;21562;-75
2021/01/12 02:22:27;;;;;;;20.20;13.32;;;;;;;0.42;68.99;101179.21;1722561;81;21218;-74
2021/01/12 02:24:55;;;;;;;19.32;11.53;;;;;;;0.40;68.96;101175.96;1727434;82;21052;-75
2021/01/12 02:27:23;;;;;;;19.15;12.43;;;;;;;0.41;68.85;101179.40;1694255;82;21143;-74
2021/01/12 02:29:51;;;;;;;18.07;12.00;;;;;;;0.43;68.66;101170.86;1721262;82;21175;-74
2021/01/12 02:32:20;;;;;;;18.30;12.20;;;;;;;0.46;68.46;101163.91;1729949;81;21534;-74
2021/01/12 02:34:49;;;;;;;17.85;11.50;;;;;;;0.49;68.26;101164.88;1719666;82;21619;-74
2021/01/12 02:37:17;;;;;;;17.40;10.88;;;;;;;0.50;68.06;101160.46;1728425;82;21137;-74
2021/01/12 02:39:45;;;;;;;14.53;10.13;;;;;;;0.51;67.76;101158.14;1710498;81;21175;-74
2021/01/12 02:42:16;;;;;;;14.83;9.93;;;;;;;0.55;67.62;101156.30;1653205;82;21170;-75
2021/01/12 02:44:44;;;;;;;16.52;10.48;;;;;;;0.58;67.54;101150.69;1729676;82;21646;-73
2021/01/12 02:47:12;;;;;;;14.75;9.70;;;;;;;0.62;67.46;101145.89;1726226;82;21600;-74
2021/01/12 02:49:43;;;;;;;13.15;8.58;;;;;;;0.66;67.27;101148.51;1714080;82;21075;-74
2021/01/12 02:52:14;;;;;;;15.00;9.20;;;;;;;0.65;67.06;101142.41;1717429;81;21140;-73
2021/01/12 02:54:43;;;;;;;14.95;9.10;;;;;;;0.66;66.86;101148.00;1722173;82;21080;-74
2021/01/12 02:57:10;;;;;;;13.95;8.45;;;;;;;0.67;66.53;101144.88;1719527;82;21390;-74
2021/01/12 02:59:40;;;;;;;11.60;8.05;;;;;;;0.67;66.29;101140.92;1732612;82;21606;-73
2021/01/12 03:02:07;;;;;;;14.33;8.50;;;;;;;0.67;66.12;101139.11;1719027;81;21208;-73
2021/01/12 03:04:36;;;;;;;13.70;8.60;;;;;;;0.69;65.80;101142.86;1719497;82;21601;-73
2021/01/12 03:07:04;;;;;;;13.13;9.08;;;;;;;0.66;65.45;101140.62;1713766;81;21235;-73
2021/01/12 03:09:31;;;;;;;14.68;9.63;;;;;;;0.65;65.25;101133.70;1722409;82;22277;-73
2021/01/12 03:11:59;;;;;;;15.98;9.38;;;;;;;0.63;65.06;101132.58;1732431;81;21179;-74
2021/01/12 03:14:27;;;;;;;14.15;9.53;;;;;;;0.64;65.01;101137.34;1717815;81;21155;-75
2021/01/12 03:16:54;;;;;;;15.58;10.63;;;;;;;0.64;65.02;101130.77;1725807;82;21147;-74
2021/01/12 03:19:22;;;;;;;14.60;10.13;;;;;;;0.67;65.00;101128.59;1723247;82;21184;-75
2021/01/12 03:21:50;;;;;;;15.88;10.50;;;;;;;0.68;64.96;101126.28;1731137;81;21406;-74
2021/01/12 03:24:18;;;;;;;14.90;10.68;;;;;;;0.67;64.92;101127.28;1721444;82;21162;-75
2021/01/12 03:26:46;;;;;;;17.07;10.53;;;;;;;0.64;64.97;101122.38;1726603;81;21196;-74
2021/01/12 03:29:14;;;;;;;19.07;11.18;;;;;;;0.65;65.01;101124.00;1716283;82;21527;-74
2021/01/12 03:31:41;;;;;;;16.12;10.75;;;;;;;0.67;64.87;101124.66;1730350;82;21120;-74
2021/01/12 03:34:09;;;;;;;15.63;10.88;;;;;;;0.67;64.76;101127.78;1723327;81;21385;-74
2021/01/12 03:36:38;;;;;;;17.35;10.43;;;;;;;0.68;64.74;101124.96;1726395;82;21198;-74
2021/01/12 03:39:06;;;;;;;16.82;11.18;;;;;;;0.66;64.70;101119.59;1741234;81;21203;-74
2021/01/12 03:41:34;;;;;;;14.98;10.30;;;;;;;0.66;64.69;101113.83;1732007;81;21171;-74
2021/01/12 03:44:03;;;;;;;16.75;10.90;;;;;;;0.66;64.74;101113.02;1726877;81;21052;-74
2021/01/12 03:46:31;;;;;;;15.32;10.50;;;;;;;0.65;64.82;101108.23;1733068;81;21636;-74
2021/01/12 03:48:59;;;;;;;16.30;10.60;;;;;;;0.66;64.90;101105.94;1724088;81;21155;-75
2021/01/12 03:51:27;;;;;;;16.45;10.15;;;;;;;0.67;64.94;101098.86;1732485;81;21588;-75
2021/01/12 03:53:54;;;;;;;18.98;11.78;;;;;;;0.64;64.96;101092.14;1723876;81;21556;-74
2021/01/12 03:56:22;;;;;;;17.57;11.28;;;;;;;0.62;65.06;101088.86;1724447;82;21123;-73
2021/01/12 03:58:49;;;;;;;18.45;11.60;;;;;;;0.61;65.12;101082.48;1726099;82;21200;-74
2021/01/12 04:01:17;;;;;;;18.50;11.10;;;;;;;0.62;65.23;101083.61;1710921;82;21148;-73
2021/01/12 04:03:45;;;;;;;18.25;11.80;;;;;;;0.59;65.23;101081.83;1723721;81;21544;-73
2021/01/12 04:06:15;;;;;;;15.75;10.68;;;;;;;0.55;65.31;101083.19;1720145;82;21583;-75
2021/01/12 04:08:45;;;;;;;15.70;10.95;;;;;;;0.53;65.35;101080.76;1767785;80;21158;-74
2021/01/12 04:11:18;;;;;;;18.45;11.83;;;;;;;0.52;65.40;101079.10;1774482;80;21366;-73
2021/01/12 04:13:45;;;;;;;19.85;11.22;;;;;;;0.53;65.45;101080.76;1765353;79;21151;-74
2021/01/12 04:16:13;;;;;;;17.95;11.12;;;;;;;0.53;65.51;101074.66;1761841;80;21619;-74
2021/01/12 04:18:42;;;;;;;18.35;11.33;;;;;;;0.56;65.54;101078.25;1757856;80;21253;-74
2021/01/12 04:21:12;;;;;;;18.10;10.88;;;;;;;0.57;65.50;101079.91;1750625;82;21143;-74
2021/01/12 04:23:39;;;;;;;19.17;10.93;;;;;;;0.56;65.46;101083.03;1758855;79;21375;-74
2021/01/12 04:26:07;;;;;;;20.02;11.35;;;;;;;0.53;65.47;101078.60;1765570;80;21978;-74
2021/01/12 04:28:35;;;;;;;19.87;12.85;;;;;;;0.52;65.57;101076.98;1764076;80;21104;-73
2021/01/12 04:31:02;;;;;;;20.82;13.75;;;;;;;0.51;65.71;101073.53;1766904;80;21044;-74
2021/01/12 04:33:30;;;;;;;20.23;13.25;;;;;;;0.50;65.92;101072.41;1761169;79;21591;-74
2021/01/12 04:35:58;;;;;;;21.02;13.68;;;;;;;0.48;66.05;101065.19;1765713;80;21264;-73
2021/01/12 04:38:26;;;;;;;22.87;14.03;;;;;;;0.45;66.20;101065.86;1750412;82;21151;-74
2021/01/12 04:40:54;;;;;;;22.65;13.55;;;;;;;0.44;66.40;101067.36;1782121;79;21047;-73
2021/01/12 04:43:23;;;;;;;21.77;13.62;;;;;;;0.46;66.63;101064.88;1776883;79;21678;-74
2021/01/12 04:45:51;;;;;;;22.00;14.07;;;;;;;0.45;66.79;101070.30;1764918;79;21111;-74
2021/01/12 04:48:18;;;;;;;22.30;14.55;;;;;;;0.44;66.99;101066.05;1771930;80;21378;-74
2021/01/12 04:50:46;;;;;;;20.95;13.98;;;;;;;0.43;67.18;101069.68;1769298;80;21147;-74
2021/01/12 04:53:14;;;;;;;23.57;14.60;;;;;;;0.42;67.34;101063.58;1757736;80;21151;-73
2021/01/12 04:55:43;;;;;;;21.75;14.45;;;;;;;0.47;67.55;101067.01;1773123;79;21108;-74
2021/01/12 04:58:11;;;;;;;24.60;15.15;;;;;;;0.46;67.71;101064.04;1768009;80;21143;-74
2021/01/12 05:00:39;;;;;;;24.35;15.18;;;;;;;0.45;67.93;101068.98;1765413;80;21346;-76
2021/01/12 05:03:08;;;;;;;25.65;15.83;;;;;;;0.44;68.17;101074.75;1781080;80;21194;-75
2021/01/12 05:05:39;;;;;;;21.35;14.47;;;;;;;0.43;68.35;101067.05;1772337;79;21154;-74
2021/01/12 05:08:12;;;;;;;21.20;14.95;;;;;;;0.42;68.59;101061.45;1776160;79;21572;-73
2021/01/12 05:10:42;;;;;;;24.57;15.18;;;;;;;0.41;68.76;101054.58;1769523;79;21131;-74
2021/01/12 05:13:13;;;;;;;22.90;14.53;;;;;;;0.42;68.95;101062.27;1779721;80;21264;-73
2021/01/12 05:15:41;;;;;;;22.82;15.15;;;;;;;0.40;69.14;101060.84;1772130;80;21047;-74
2021/01/12 05:18:11;;;;;;;24.30;14.73;;;;;;;0.38;69.38;101061.50;1750217;80;21244;-76
2021/01/12 05:20:48;;;;;;;21.93;13.28;;;;;;;0.37;69.56;101065.94;1752644;80;21171;-73
2021/01/12 05:23:24;;;;;;;23.80;15.10;;;;;;;0.35;69.75;101059.22;1760924;80;21118;-75
2021/01/12 05:25:56;;;;;;;23.02;14.93;;;;;;;0.30;69.95;101061.08;1768314;79;21492;-75
2021/01/12 05:28:23;;;;;;;23.55;15.23;;;;;;;0.27;70.18;101064.56;1748504;80;21140;-75
2021/01/12 05:30:51;;;;;;;23.35;15.18;;;;;;;0.26;70.40;101066.34;1759937;80;21130;-74
2021/01/12 05:33:20;;;;;;;24.52;16.48;;;;;;;0.25;70.60;101073.10;1775491;80;21182;-74
2021/01/12 05:35:50;;;;;;;22.75;14.38;;;;;;;0.26;70.77;101074.73;1764360;79;21143;-74
2021/01/12 05:38:27;;;;;;;26.55;15.80;;;;;;;0.23;70.97;101072.80;1765902;80;21599;-74
2021/01/12 05:40:57;;;;;;;23.10;14.83;;;;;;;0.22;71.17;101072.95;1771759;79;21061;-75
2021/01/12 05:43:38;;;;;;;24.90;15.20;;;;;;;0.22;71.35;101076.89;1776425;79;21119;-75
2021/01/12 05:46:11;;;;;;;22.87;15.30;;;;;;;0.21;71.56;101078.70;1764347;79;21091;-75
2021/01/12 05:48:42;;;;;;;25.55;15.78;;;;;;;0.20;71.73;101076.27;1762832;80;21586;-75
2021/01/12 05:51:15;;;;;;;23.87;14.85;;;;;;;0.16;71.90;101079.72;1764711;80;21376;-75
2021/01/12 05:53:51;;;;;;;18.12;11.15;;;;;;;0.14;72.05;101076.47;1755718;80;21344;-74
2021/01/12 05:56:24;;;;;;;21.80;14.23;;;;;;;0.12;72.19;101082.38;1766924;79;21201;-75
2021/01/12 05:58:56;;;;;;;24.52;15.08;;;;;;;0.10;72.28;101081.76;1717266;82;21156;-74
2021/01/12 06:01:52;;;;;;;24.20;14.53;;;;;;;0.10;72.33;101080.91;1726322;82;21052;-74
2021/01/12 06:04:20;;;;;;;25.05;15.38;;;;;;;0.10;72.42;101079.13;1704283;83;21176;-74
2021/01/12 06:06:52;;;;;;;23.67;15.10;;;;;;;0.10;72.51;101079.13;1701696;82;21203;-73
2021/01/12 06:09:22;;;;;;;23.30;14.85;;;;;;;0.10;72.61;101075.19;1749064;80;21105;-74
2021/01/12 06:11:54;;;;;;;22.70;14.60;;;;;;;0.11;72.68;101074.69;1739762;81;21163;-74
2021/01/12 06:14:29;;;;;;;22.37;14.93;;;;;;;0.12;72.75;101082.88;1728388;82;21218;-74
2021/01/12 06:17:00;;;;;;;26.12;16.30;;;;;;;0.11;72.81;101084.70;1724793;81;21583;-74
2021/01/12 06:19:30;;;;;;;23.73;14.63;;;;;;;0.14;72.92;101077.78;1742753;81;21600;-75
2021/01/12 06:22:23;;;;;;;27.48;16.50;;;;;;;0.15;72.94;101080.72;1741029;81;21140;-75
2021/01/12 06:24:56;;;;;;;26.62;16.05;;;;;;;0.18;72.99;101075.62;1735608;81;27153;-77
2021/01/12 06:27:28;;;;;;;25.88;16.35;;;;;;;0.19;72.98;101080.68;1732897;81;21057;-74
2021/01/12 06:30:04;;;;;;;26.50;16.05;;;;;;;0.20;73.00;101077.59;1735171;81;22228;-74
2021/01/12 06:32:33;;;;;;;22.10;14.70;;;;;;;0.21;73.03;101078.70;1704414;83;21223;-73
2021/01/12 06:35:08;;;;;;;25.02;15.88;;;;;;;0.24;73.03;101084.11;1732640;82;21072;-73
2021/01/12 06:37:42;;;;;;;22.25;13.70;;;;;;;0.25;73.04;101083.61;1728303;81;21190;-75
2021/01/12 06:40:12;;;;;;;23.15;15.60;;;;;;;0.25;73.02;101080.48;1725328;82;21628;-74
2021/01/12 06:42:40;;;;;;;22.93;15.58;;;;;;;0.25;73.04;101084.42;1714982;82;21340;-75
2021/01/12 06:45:09;;;;;;;25.43;15.20;;;;;;;0.28;73.03;101080.64;1710129;82;21690;-75
2021/01/12 06:47:38;;;;;;;25.65;16.60;;;;;;;0.29;73.01;101080.44;1729307;81;21211;-75
2021/01/12 06:50:16;;;;;;;23.15;15.35;;;;;;;0.30;73.01;101074.22;1722120;82;21603;-74
2021/01/12 06:52:49;;;;;;;25.32;15.60;;;;;;;0.30;72.96;101069.47;1714115;81;21496;-73
2021/01/12 06:55:21;;;;;;;22.22;15.28;;;;;;;0.28;72.92;101076.20;1736625;82;21359;-74
2021/01/12 06:57:51;;;;;;;23.73;16.15;;;;;;;0.28;72.91;101075.38;1723764;81;21203;-74
2021/01/12 07:00:21;;;;;;;24.12;15.65;;;;;;;0.26;72.92;101074.73;1724882;81;21156;-74
2021/01/12 07:02:59;;;;;;;21.93;14.73;;;;;;;0.28;72.90;101071.44;1734815;81;21195;-75
2021/01/12 07:05:39;;;;;;;21.85;13.90;;;;;;;0.28;72.82;101063.56;1728270;81;21159;-74
2021/01/12 07:08:10;;;;;;;21.77;14.25;;;;;;;0.26;72.75;101072.10;1728002;81;21372;-75
2021/01/12 07:10:47;;;;;;;23.67;15.63;;;;;;;0.24;72.75;101067.04;1727511;81;21612;-74
2021/01/12 07:13:15;;;;;;;23.15;14.85;;;;;;;0.22;72.77;101071.64;1736017;81;21163;-74
2021/01/12 07:15:49;;;;;;;24.20;15.05;;;;;;;0.21;72.79;101064.27;1716606;81;21100;-73
2021/01/12 07:18:22;;;;;;;21.85;14.55;;;;;;;0.21;72.72;101059.51;1760911;79;21187;-73
2021/01/12 07:20:51;;;;;;;23.38;14.45;;;;;;;0.21;72.70;101060.31;1772044;79;25147;-73
2021/01/12 07:23:21;;;;;;;21.68;14.00;;;;;;;0.22;72.68;101054.56;1769160;79;21198;-73
2021/01/12 07:25:48;;;;;;;21.35;13.30;;;;;;;0.23;72.61;101060.97;1726310;79;21167;-74
2021/01/12 07:31:00;;;;;;;20.27;12.83;;;;;;;0.29;72.19;101056.80;1805993;79;22852;-73
2021/01/12 07:33:29;;;;;;;19.23;12.50;;;;;;;0.24;72.10;101060.47;1771442;80;21148;-74
2021/01/12 07:35:58;;;;;;;20.77;12.95;;;;;;;0.20;71.77;101053.44;1808122;78;21373;-75
2021/01/12 07:38:30;;;;;;;18.50;12.35;;;;;;;0.20;71.69;101055.25;1792951;78;21186;-74
2021/01/12 07:41:03;;;;;;;19.98;12.15;;;;;;;0.24;71.56;101053.90;1780036;78;21092;-75
2021/01/12 07:43:32;;;;;;;17.90;11.73;;;;;;;0.25;71.34;101053.40;1785316;79;21123;-74
2021/01/12 07:46:03;;;;;;;19.23;12.07;;;;;;;0.27;71.19;101057.99;1785568;78;21133;-74
2021/01/12 07:48:31;;;;;;;19.37;12.90;;;;;;;0.30;71.07;101056.33;1789195;78;21387;-73
2021/01/12 07:51:01;;;;;;;20.27;12.85;;;;;;;0.31;71.04;101047.44;1745614;78;21203;-73
2021/01/12 07:53:33;;;;;;;24.95;15.08;;;;;;;0.33;71.15;101051.53;1777164;79;21146;-74
2021/01/12 07:56:03;;;;;;;24.47;14.20;;;;;;;0.37;71.32;101048.86;1796144;79;21178;-74
2021/01/12 07:58:31;;;;;;;21.73;14.13;;;;;;;0.42;71.42;101048.31;1796483;78;21872;-74
2021/01/12 08:01:01;;;;;;;22.93;14.73;;;;;;;0.46;71.44;101046.48;1789793;78;21406;-74
2021/01/12 08:03:31;;;;;;;20.88;13.53;;;;;;;0.46;71.32;101049.11;1790570;78;21235;-74
2021/01/12 08:06:01;;;;;;;21.23;13.03;;;;;;;0.44;71.23;101043.71;1717605;79;21095;-74
2021/01/12 08:08:29;;;;;;;21.00;13.95;;;;;;;0.41;71.16;101036.99;1792363;78;21179;-73
2021/01/12 08:10:57;;;;;;;18.55;12.63;;;;;;;0.38;70.96;101038.66;1794811;78;21073;-75
2021/01/12 08:13:24;;;;;;;21.50;14.38;;;;;;;0.35;70.91;101041.64;1776992;79;21189;-72
2021/01/12 08:15:53;;;;;;;17.30;11.88;;;;;;;0.36;70.87;101047.70;1797661;79;21195;-74
2021/01/12 08:18:21;;;;;;;18.85;11.95;;;;;;;0.37;70.88;101048.05;1789997;78;21146;-75
2021/01/12 08:20:56;;;;;;;22.10;13.15;;;;;;;0.38;70.80;101047.05;1789164;78;21221;-73
2021/01/12 08:23:23;;;;;;;20.92;13.48;;;;;;;0.38;70.66;101045.73;1778820;79;21161;-74
2021/01/12 08:25:52;;;;;;;17.67;12.23;;;;;;;0.39;70.63;101049.98;1789633;79;21347;-75
2021/01/12 08:28:25;;;;;;;16.57;10.78;;;;;;;0.42;70.64;101045.19;1797978;78;21183;-74
2021/01/12 08:30:53;;;;;;;18.32;12.23;;;;;;;0.48;70.54;101047.61;1785092;79;21168;-75
2021/01/12 08:33:32;;;;;;;16.95;10.65;;;;;;;0.48;70.33;101038.91;1773728;79;21104;-73
2021/01/12 08:36:15;;;;;;;19.17;11.78;;;;;;;0.48;70.13;101033.16;1768823;79;21644;-74
2021/01/12 08:38:48;;;;;;;18.15;11.75;;;;;;;0.50;69.99;101038.25;1829067;77;21269;-74
2021/01/12 08:41:16;;;;;;;23.80;14.28;;;;;;;0.50;69.65;101039.56;1835504;77;26827;-75
2021/01/12 08:43:44;;;;;;;18.15;11.68;;;;;;;0.49;69.49;101043.16;1833616;77;21153;-74
2021/01/12 08:46:12;;;;;;;19.40;12.00;;;;;;;0.50;69.37;101035.62;1833745;77;21472;-77
2021/01/12 08:48:50;;;;;;;17.90;10.63;;;;;;;0.51;69.25;101034.11;1828735;77;21691;-75
2021/01/12 08:51:19;;;;;;;16.75;10.88;;;;;;;0.52;69.02;101032.30;1824931;77;22319;-75
2021/01/12 08:53:49;;;;;;;17.55;11.73;;;;;;;0.51;68.87;101023.59;1803184;78;21144;-75
2021/01/12 08:56:16;;;;;;;18.25;11.22;;;;;;;0.55;68.84;101019.61;1827898;76;21141;-73
2021/01/12 08:58:44;;;;;;;18.40;11.57;;;;;;;0.56;68.76;101025.20;1833624;76;21182;-73
2021/01/12 09:01:14;;;;;;;18.40;11.57;;;;;;;0.59;68.71;101026.63;1830580;77;21167;-74
2021/01/12 09:03:43;;;;;;;18.32;11.75;;;;;;;0.62;68.63;101023.65;1771760;79;22730;-74
2021/01/12 09:06:24;;;;;;;16.77;11.25;;;;;;;0.62;68.50;101019.20;1752644;80;21156;-73
2021/01/12 09:08:52;;;;;;;18.42;11.33;;;;;;;0.66;68.21;101017.88;1828965;77;21254;-74
2021/01/12 09:11:20;;;;;;;19.90;12.43;;;;;;;0.66;68.07;101021.81;1776246;80;21243;-72
2021/01/12 09:13:49;;;;;;;18.65;11.88;;;;;;;0.67;68.01;101018.17;1761176;80;21160;-74
2021/01/12 09:16:20;;;;;;;17.75;11.20;;;;;;;0.69;67.81;101008.78;1747411;80;21392;-74
2021/01/12 09:18:51;;;;;;;18.32;11.45;;;;;;;0.70;67.47;101009.13;1761742;80;21205;-75
2021/01/12 09:21:22;;;;;;;18.30;11.00;;;;;;;0.69;67.25;100998.27;1764290;80;21497;-74
2021/01/12 09:23:50;;;;;;;20.37;12.82;;;;;;;0.72;67.03;100999.72;1833611;77;21604;-75
2021/01/12 09:26:21;;;;;;;21.07;12.95;;;;;;;0.72;66.78;101004.98;1787477;79;21152;-74
2021/01/12 09:28:50;;;;;;;20.00;12.47;;;;;;;0.73;66.68;101005.32;1763396;80;21211;-75
2021/01/12 09:31:18;;;;;;;20.95;13.15;;;;;;;0.74;66.42;101003.00;1829298;76;21747;-74
2021/01/12 09:33:50;;;;;;;21.27;13.30;;;;;;;0.73;66.29;100996.13;1769667;80;21620;-74
2021/01/12 09:36:20;;;;;;;19.87;11.75;;;;;;;0.74;66.13;100990.66;1786508;79;21109;-75
2021/01/12 09:38:52;;;;;;;21.12;12.95;;;;;;;0.76;66.03;100991.78;1830442;77;21180;-75
2021/01/12 09:41:26;;;;;;;24.23;14.13;;;;;;;0.77;65.97;100980.29;1832833;76;21938;-75
2021/01/12 09:43:55;;;;;;;18.32;11.12;;;;;;;0.82;65.98;100977.91;1835645;77;21180;-76
2021/01/12 09:46:23;;;;;;;19.67;12.80;;;;;;;0.87;65.77;100969.80;1824545;77;21167;-75
2021/01/12 09:48:51;;;;;;;22.35;13.13;;;;;;;0.91;65.67;100969.75;1829994;77;21172;-74
2021/01/12 09:51:19;;;;;;;19.42;12.13;;;;;;;0.93;65.63;100955.11;1835709;77;21620;-75
2021/01/12 09:53:49;;;;;;;23.52;14.05;;;;;;;0.99;65.41;100954.38;1834020;77;21333;-77
2021/01/12 09:56:18;;;;;;;21.17;13.00;;;;;;;1.02;65.25;100936.08;1778039;80;21144;-76
2021/01/12 09:58:49;;;;;;;22.58;13.35;;;;;;;1.06;65.03;100928.97;1787452;80;21324;-75
2021/01/12 10:01:20;;;;;;;29.32;16.45;;;;;;;1.10;64.83;100926.27;1833068;76;21157;-74
2021/01/12 10:03:49;;;;;;;22.65;13.55;;;;;;;1.12;64.64;100925.59;1824409;77;21163;-74
2021/01/12 10:06:23;;;;;;;22.40;12.88;;;;;;;1.15;64.37;100926.55;1826394;77;21571;-75
2021/01/12 10:08:51;;;;;;;22.60;13.28;;;;;;;1.20;64.22;100915.95;1830074;77;21200;-75
2021/01/12 10:11:20;;;;;;;23.47;13.70;;;;;;;1.21;63.96;100910.48;1768761;79;21184;-74
2021/01/12 10:13:48;;;;;;;21.05;13.25;;;;;;;1.25;63.83;100904.35;1771013;80;21125;-74
2021/01/12 10:16:25;;;;;;;19.30;11.83;;;;;;;1.31;63.60;100897.03;1826087;76;21198;-75
2021/01/12 10:18:54;;;;;;;20.80;12.37;;;;;;;1.31;63.18;100893.89;1771252;79;22119;-73
2021/01/12 10:21:22;;;;;;;19.75;12.25;;;;;;;1.28;62.81;100893.45;1770040;80;21136;-75
2021/01/12 10:23:54;;;;;;;21.25;12.91;;;;;;;1.25;62.67;100891.20;1638164;76;10000291;-77
2021/01/12 10:26:24;;;;;;;20.13;12.37;;;;;;;1.26;62.59;100888.39;1833381;77;21009;-75
2021/01/12 10:28:53;;;;;;;18.05;11.93;;;;;;;1.30;62.78;100874.36;1829785;77;21730;-75
2021/01/12 10:31:20;;;;;;;17.70;10.63;;;;;;;1.32;62.54;100868.42;1828463;77;21191;-77
2021/01/12 10:33:49;;;;;;;17.35;10.15;;;;;;;1.31;62.21;100863.63;1833355;77;21156;-77
2021/01/12 10:36:20;;;;;;;17.87;9.50;;;;;;;1.32;62.12;100863.16;1835117;77;21584;-77
2021/01/12 10:38:47;;;;;;;18.37;10.88;;;;;;;1.34;62.00;100847.97;1831563;77;21726;-76
2021/01/12 10:41:15;;;;;;;20.27;11.73;;;;;;;1.36;61.78;100840.71;1826558;77;22259;-77
2021/01/12 10:43:43;;;;;;;16.85;10.55;;;;;;;1.36;61.74;100834.94;1832639;77;21581;-77
2021/01/12 10:46:10;;;;;;;15.83;9.73;;;;;;;1.39;61.49;100833.25;1769325;80;21150;-75
2021/01/12 10:48:40;;;;;;;18.20;10.48;;;;;;;1.39;61.44;100826.67;1784097;80;21177;-76
2021/01/12 10:51:09;;;;;;;16.10;9.85;;;;;;;1.43;61.55;100817.89;1770279;80;21164;-78
2021/01/12 10:53:36;;;;;;;17.30;10.13;;;;;;;1.48;61.46;100820.78;1763988;80;21390;-76
2021/01/12 10:56:05;;;;;;;17.00;10.67;;;;;;;1.51;61.19;100818.24;1649566;80;10000062;-75
2021/01/12 10:58:33;;;;;;;17.50;9.73;;;;;;;1.52;61.17;100828.59;1773834;79;21175;-75
2021/01/12 11:01:01;;;;;;;15.85;10.05;;;;;;;1.54;61.16;100828.39;1776645;79;21117;-75
2021/01/12 11:03:33;;;;;;;16.02;10.20;;;;;;;1.58;61.02;100835.73;1780101;79;21476;-76
2021/01/12 11:06:02;;;;;;;16.82;9.83;;;;;;;1.57;60.75;100830.64;1771877;80;21235;-77
2021/01/12 11:08:31;;;;;;;18.35;9.33;;;;;;;1.54;60.66;100832.34;1834075;76;21172;-75
2021/01/12 11:11:01;;;;;;;16.97;10.20;;;;;;;1.55;60.58;100831.36;1779402;79;22184;-76
2021/01/12 11:13:30;;;;;;;20.23;9.93;;;;;;;1.52;60.56;100829.91;1780403;79;21600;-77
2021/01/12 11:15:58;;;;;;;17.00;10.20;;;;;;;1.49;60.57;100827.66;1793671;79;21375;-77
2021/01/12 11:18:28;;;;;;;22.95;9.98;;;;;;;1.47;60.62;100823.58;1772416;79;21179;-76
2021/01/12 11:20:58;;;;;;;20.37;10.10;;;;;;;1.44;60.46;100827.91;1779322;79;21156;-75
2021/01/12 11:23:28;;;;;;;19.77;10.85;;;;;;;1.39;60.56;100824.04;1742027;79;21231;-77
2021/01/12 11:25:57;;;;;;;20.68;10.93;;;;;;;1.37;60.77;100822.59;1779481;79;21651;-78
2021/01/12 11:28:24;;;;;;;18.10;10.60;;;;;;;1.35;60.83;100823.27;1773460;80;21463;-76
2021/01/12 11:30:53;;;;;;;19.87;10.82;;;;;;;1.34;60.94;100820.34;1837940;76;21164;-76